Time;durP1;ratioP1;P1;durP2;ratioP2;P2;SDS_P1;SDS_P2;PMS_P1;PMS_P2;Temp;Humidity;BMP_temperature;BMP_pressure;BME280_temperature;BME280_humidity;BME280_pressure;Samples;Min_cycle;Max_cycle;Signal;HPM_P1;HPM_P2
2021/11/13 00:01:52;;;;;;;;;;;24.40;30.20;;;;;;482609;246;1233;-73
2021/11/13 00:03:54;;;;;;;;;;;24.00;30.30;;;;;;482647;246;1150;-73
2021/11/13 00:05:55;;;;;;;;;;;24.40;30.20;;;;;;482669;247;1210;-74
2021/11/13 00:07:56;;;;;;;;;;;24.00;30.40;;;;;;482684;246;1047;-74
2021/11/13 00:09:58;;;;;;;;;;;24.50;30.20;;;;;;482657;246;2138;-74
2021/11/13 00:11:59;;;;;;;;;;;24.20;30.40;;;;;;482624;246;962;-74
2021/11/13 00:14:02;;;;;;;;;;;24.10;30.20;;;;;;482715;247;1211;-74
2021/11/13 00:16:02;;;;;;;;;;;24.10;30.60;;;;;;482627;247;1380;-74
2021/11/13 00:18:04;;;;;;;;;;;24.10;30.40;;;;;;482762;246;1116;-74
2021/11/13 00:20:05;;;;;;;;;;;24.50;30.00;;;;;;482793;247;1170;-74
2021/11/13 00:22:06;;;;;;;;;;;24.10;30.30;;;;;;482727;246;1134;-73
2021/11/13 00:24:08;;;;;;;;;;;24.50;30.10;;;;;;482806;247;1227;-73
2021/11/13 00:26:09;;;;;;;;;;;24.20;30.50;;;;;;482776;246;1229;-74
2021/11/13 00:28:10;;;;;;;;;;;24.40;30.20;;;;;;482834;247;1095;-73
2021/11/13 00:30:12;;;;;;;;;;;24.30;30.40;;;;;;482828;246;2356;-73
2021/11/13 00:32:13;;;;;;;;;;;24.10;30.20;;;;;;482721;246;1151;-73
2021/11/13 00:34:14;;;;;;;;;;;24.40;30.20;;;;;;482775;246;1157;-74
2021/11/13 00:36:15;;;;;;;;;;;24.10;30.40;;;;;;482695;247;1188;-73
2021/11/13 00:38:17;;;;;;;;;;;24.40;30.20;;;;;;482755;246;1091;-74
2021/11/13 00:40:18;;;;;;;;;;;24.20;30.50;;;;;;482762;247;1076;-74
2021/11/13 00:42:19;;;;;;;;;;;24.30;30.20;;;;;;482672;247;1142;-74
2021/11/13 00:44:21;;;;;;;;;;;24.00;30.60;;;;;;482727;247;1159;-74
2021/11/13 00:46:22;;;;;;;;;;;23.80;30.80;;;;;;482677;246;1320;-74
2021/11/13 00:48:23;;;;;;;;;;;24.00;30.80;;;;;;482790;246;1090;-74
2021/11/13 00:50:25;;;;;;;;;;;23.90;30.90;;;;;;482780;246;2192;-74
2021/11/13 00:52:26;;;;;;;;;;;24.10;30.50;;;;;;482674;247;1195;-73
2021/11/13 00:54:30;;;;;;;;;;;23.90;31.00;;;;;;482722;246;959;-73
2021/11/13 00:56:29;;;;;;;;;;;23.90;30.70;;;;;;482578;247;1586;-73
2021/11/13 00:58:30;;;;;;;;;;;23.90;31.00;;;;;;482845;247;1135;-73
2021/11/13 01:00:31;;;;;;;;;;;23.70;30.90;;;;;;482746;246;1067;-73
2021/11/13 01:02:33;;;;;;;;;;;23.90;31.00;;;;;;482750;246;1127;-73
2021/11/13 01:04:34;;;;;;;;;;;23.90;30.90;;;;;;482748;246;1172;-74
2021/11/13 01:06:35;;;;;;;;;;;24.10;30.60;;;;;;482699;246;1277;-74
2021/11/13 01:08:37;;;;;;;;;;;23.80;30.90;;;;;;482795;246;1040;-74
2021/11/13 01:10:38;;;;;;;;;;;23.90;30.60;;;;;;482759;246;2121;-74
2021/11/13 01:12:39;;;;;;;;;;;23.90;30.90;;;;;;482808;247;1162;-74
2021/11/13 01:14:41;;;;;;;;;;;23.80;31.00;;;;;;482772;246;1091;-73
2021/11/13 01:16:42;;;;;;;;;;;23.90;30.90;;;;;;482697;247;1223;-73
2021/11/13 01:18:43;;;;;;;;;;;23.80;31.00;;;;;;482777;246;990;-73
2021/11/13 01:20:44;;;;;;;;;;;24.10;30.70;;;;;;482706;247;1267;-73
2021/11/13 01:22:46;;;;;;;;;;;23.90;30.80;;;;;;482783;246;1120;-74
2021/11/13 01:24:48;;;;;;;;;;;23.90;30.70;;;;;;482766;247;1101;-73
2021/11/13 01:26:50;;;;;;;;;;;23.90;30.90;;;;;;482669;247;1307;-73
2021/11/13 01:28:50;;;;;;;;;;;23.80;30.80;;;;;;482821;247;1585;-73
2021/11/13 01:30:52;;;;;;;;;;;24.10;30.80;;;;;;482698;247;2121;-73
2021/11/13 01:32:53;;;;;;;;;;;23.90;31.00;;;;;;482785;247;1119;-73
2021/11/13 01:34:54;;;;;;;;;;;24.30;30.50;;;;;;482841;246;967;-73
2021/11/13 01:36:56;;;;;;;;;;;24.00;30.80;;;;;;482741;246;1474;-73
2021/11/13 01:38:57;;;;;;;;;;;24.20;30.40;;;;;;482782;246;978;-73
2021/11/13 01:40:58;;;;;;;;;;;24.10;30.70;;;;;;482760;247;1033;-74
2021/11/13 01:43:00;;;;;;;;;;;24.00;30.60;;;;;;482785;246;1224;-74
2021/11/13 01:45:01;;;;;;;;;;;24.50;30.30;;;;;;482804;247;1070;-73
2021/11/13 01:47:02;;;;;;;;;;;23.90;30.80;;;;;;482695;246;1164;-74
2021/11/13 01:49:03;;;;;;;;;;;23.80;30.70;;;;;;482796;246;1192;-74
2021/11/13 01:51:05;;;;;;;;;;;24.10;30.90;;;;;;482713;246;2247;-74
2021/11/13 01:53:06;;;;;;;;;;;23.90;30.80;;;;;;482731;246;1245;-73
2021/11/13 01:55:08;;;;;;;;;;;24.30;30.60;;;;;;482724;246;953;-73
2021/11/13 01:57:11;;;;;;;;;;;24.00;30.70;;;;;;482683;246;1201;-74
2021/11/13 01:59:10;;;;;;;;;;;24.40;30.30;;;;;;482667;247;1500;-73
2021/11/13 02:01:12;;;;;;;;;;;24.00;30.70;;;;;;482677;247;1212;-73
2021/11/13 02:03:13;;;;;;;;;;;24.00;30.60;;;;;;482628;246;1170;-73
2021/11/13 02:05:14;;;;;;;;;;;24.10;30.90;;;;;;482720;247;969;-73
2021/11/13 02:07:16;;;;;;;;;;;24.00;30.60;;;;;;482612;246;1164;-73
2021/11/13 02:09:17;;;;;;;;;;;24.30;30.50;;;;;;482756;247;1024;-73
2021/11/13 02:11:18;;;;;;;;;;;24.10;30.60;;;;;;482666;246;2188;-73
2021/11/13 02:13:20;;;;;;;;;;;24.50;30.20;;;;;;482734;247;1123;-73
2021/11/13 02:15:21;;;;;;;;;;;23.90;30.70;;;;;;482758;246;982;-73
2021/11/13 02:17:22;;;;;;;;;;;24.20;30.40;;;;;;482669;246;1185;-73
2021/11/13 02:19:24;;;;;;;;;;;24.30;30.50;;;;;;482796;246;956;-73
2021/11/13 02:21:26;;;;;;;;;;;24.00;30.50;;;;;;482732;246;1276;-73
2021/11/13 02:23:27;;;;;;;;;;;24.40;30.50;;;;;;482762;247;976;-73
2021/11/13 02:25:28;;;;;;;;;;;24.00;30.70;;;;;;482769;246;953;-73
2021/11/13 02:27:30;;;;;;;;;;;24.30;30.40;;;;;;482671;247;1138;-73
2021/11/13 02:29:31;;;;;;;;;;;24.10;30.70;;;;;;482730;247;1086;-73
2021/11/13 02:31:32;;;;;;;;;;;24.20;30.40;;;;;;482629;247;2204;-73
2021/11/13 02:33:34;;;;;;;;;;;24.40;30.50;;;;;;482744;246;933;-73
2021/11/13 02:35:35;;;;;;;;;;;24.00;30.60;;;;;;482730;247;1236;-73
2021/11/13 02:37:36;;;;;;;;;;;24.30;30.50;;;;;;482645;246;1109;-73
2021/11/13 02:39:38;;;;;;;;;;;23.70;31.00;;;;;;482701;247;1053;-73
2021/11/13 02:41:41;;;;;;;;;;;24.30;30.50;;;;;;482717;246;1124;-74
2021/11/13 02:43:40;;;;;;;;;;;24.00;30.70;;;;;;482776;247;1333;-73
2021/11/13 02:45:42;;;;;;;;;;;24.00;30.50;;;;;;482769;246;1419;-74
2021/11/13 02:47:43;;;;;;;;;;;24.40;30.60;;;;;;482762;246;1121;-73
2021/11/13 02:49:44;;;;;;;;;;;23.90;30.60;;;;;;482753;246;1342;-73
2021/11/13 02:51:46;;;;;;;;;;;23.50;31.40;;;;;;482711;246;2193;-73
2021/11/13 02:53:49;;;;;;;;;;;23.80;31.50;;;;;;482758;246;921;-73
2021/11/13 02:55:48;;;;;;;;;;;23.50;31.40;;;;;;482682;247;1278;-73
2021/11/13 02:57:50;;;;;;;;;;;24.10;31.00;;;;;;482871;246;1095;-73
2021/11/13 02:59:51;;;;;;;;;;;23.80;31.00;;;;;;482780;247;963;-73
2021/11/13 03:01:53;;;;;;;;;;;24.30;30.40;;;;;;482695;246;1116;-73
2021/11/13 03:03:54;;;;;;;;;;;24.00;30.80;;;;;;482769;247;931;-73
2021/11/13 03:05:55;;;;;;;;;;;24.20;30.30;;;;;;482673;246;1423;-73
2021/11/13 03:07:57;;;;;;;;;;;24.20;30.50;;;;;;482822;246;1156;-74
2021/11/13 03:09:58;;;;;;;;;;;23.90;30.60;;;;;;482778;246;1040;-74
2021/11/13 03:11:59;;;;;;;;;;;24.30;30.60;;;;;;482655;247;2193;-74
2021/11/13 03:14:01;;;;;;;;;;;23.80;30.70;;;;;;482766;246;966;-74
2021/11/13 03:16:02;;;;;;;;;;;24.30;30.50;;;;;;482652;247;1276;-73
2021/11/13 03:18:03;;;;;;;;;;;23.90;30.80;;;;;;482861;246;1125;-73
2021/11/13 03:20:05;;;;;;;;;;;24.20;30.30;;;;;;482778;246;1126;-73
2021/11/13 03:22:07;;;;;;;;;;;24.00;30.80;;;;;;482633;247;1206;-74
2021/11/13 03:24:08;;;;;;;;;;;24.00;30.40;;;;;;482723;246;1042;-73
2021/11/13 03:26:09;;;;;;;;;;;24.40;30.20;;;;;;482734;243;1159;-73
2021/11/13 03:28:10;;;;;;;;;;;23.90;30.60;;;;;;482770;246;984;-74
2021/11/13 03:30:12;;;;;;;;;;;24.30;30.30;;;;;;482777;247;1055;-74
2021/11/13 03:32:13;;;;;;;;;;;23.90;30.70;;;;;;482742;246;2195;-73
2021/11/13 03:34:14;;;;;;;;;;;24.20;30.30;;;;;;482733;246;1066;-73
2021/11/13 03:36:19;;;;;;;;;;;23.70;30.90;;;;;;482720;243;1200;-74
2021/11/13 03:38:18;;;;;;;;;;;23.80;30.60;;;;;;482769;247;1455;-73
2021/11/13 03:40:19;;;;;;;;;;;24.10;30.60;;;;;;482798;246;991;-74
2021/11/13 03:42:22;;;;;;;;;;;23.80;30.50;;;;;;482729;247;943;-73
2021/11/13 03:44:22;;;;;;;;;;;24.30;30.30;;;;;;482802;247;1385;-73
2021/11/13 03:46:23;;;;;;;;;;;23.60;31.00;;;;;;482715;247;1045;-73
2021/11/13 03:48:25;;;;;;;;;;;24.30;30.40;;;;;;482711;246;981;-73
2021/11/13 03:50:26;;;;;;;;;;;23.80;31.00;;;;;;482678;246;955;-74
2021/11/13 03:52:27;;;;;;;;;;;23.70;30.70;;;;;;482715;246;2185;-73
2021/11/13 03:54:31;;;;;;;;;;;23.40;31.20;;;;;;482796;247;1261;-74
2021/11/13 03:56:30;;;;;;;;;;;23.10;31.80;;;;;;482644;246;1352;-74
2021/11/13 03:58:32;;;;;;;;;;;23.70;31.10;;;;;;482749;247;1020;-73
2021/11/13 04:00:33;;;;;;;;;;;23.40;31.50;;;;;;482713;246;945;-73
2021/11/13 04:02:34;;;;;;;;;;;23.50;30.90;;;;;;482771;247;1163;-73
2021/11/13 04:04:36;;;;;;;;;;;23.50;31.40;;;;;;482788;246;966;-74
2021/11/13 04:06:37;;;;;;;;;;;23.20;31.30;;;;;;482693;246;1306;-73
2021/11/13 04:08:38;;;;;;;;;;;23.90;31.00;;;;;;482772;246;1149;-73
2021/11/13 04:10:40;;;;;;;;;;;23.30;31.30;;;;;;482700;246;1011;-73
2021/11/13 04:12:41;;;;;;;;;;;23.70;30.80;;;;;;482663;247;2129;-74
2021/11/13 04:14:42;;;;;;;;;;;23.70;31.10;;;;;;482680;247;955;-74
2021/11/13 04:16:44;;;;;;;;;;;23.50;30.90;;;;;;482681;246;1203;-74
2021/11/13 04:18:45;;;;;;;;;;;23.70;31.10;;;;;;482786;247;1052;-73
2021/11/13 04:20:46;;;;;;;;;;;23.40;31.10;;;;;;482714;247;1052;-73
2021/11/13 04:22:48;;;;;;;;;;;23.60;31.10;;;;;;482746;247;1116;-73
2021/11/13 04:24:49;;;;;;;;;;;23.30;31.20;;;;;;482832;247;1065;-73
2021/11/13 04:26:50;;;;;;;;;;;23.60;31.00;;;;;;482697;246;1226;-73
2021/11/13 04:28:51;;;;;;;;;;;23.10;31.50;;;;;;482783;246;1235;-74
2021/11/13 04:30:53;;;;;;;;;;;23.50;31.00;;;;;;482678;247;1067;-73
2021/11/13 04:32:54;;;;;;;;;;;23.20;31.60;;;;;;482648;246;2181;-73
2021/11/13 04:35:13;;;;;;;;;;;23.10;31.30;;;;;;482707;247;1118;-73
2021/11/13 04:37:13;;;;;;;;;;;23.40;31.50;;;;;;481945;247;1467;-73
2021/11/13 04:39:06;;;;;;;;;;;23.20;31.30;;;;;;482298;247;1435;-73
2021/11/13 04:41:07;;;;;;;;;;;23.60;30.90;;;;;;482744;246;1359;-73
2021/11/13 04:43:08;;;;;;;;;;;23.20;31.50;;;;;;482618;246;1188;-73
2021/11/13 04:45:09;;;;;;;;;;;23.30;31.00;;;;;;482634;246;946;-73
2021/11/13 04:47:11;;;;;;;;;;;23.40;31.10;;;;;;482645;246;1175;-73
2021/11/13 04:49:12;;;;;;;;;;;23.20;31.20;;;;;;482757;246;980;-74
2021/11/13 04:51:13;;;;;;;;;;;23.60;31.00;;;;;;482721;246;1219;-73
2021/11/13 04:53:15;;;;;;;;;;;23.10;31.40;;;;;;482727;246;2169;-73
2021/11/13 04:55:16;;;;;;;;;;;23.30;31.00;;;;;;482744;246;1197;-74
2021/11/13 04:57:17;;;;;;;;;;;22.90;31.50;;;;;;482702;247;1110;-73
2021/11/13 04:59:19;;;;;;;;;;;22.70;31.80;;;;;;482703;246;1063;-73
2021/11/13 05:01:20;;;;;;;;;;;23.30;31.20;;;;;;482723;247;1223;-73
2021/11/13 05:03:21;;;;;;;;;;;23.00;31.60;;;;;;482721;246;1009;-73
2021/11/13 05:05:23;;;;;;;;;;;23.30;30.90;;;;;;482754;246;1181;-73
2021/11/13 05:07:24;;;;;;;;;;;23.50;31.20;;;;;;482673;247;1242;-73
2021/11/13 05:09:25;;;;;;;;;;;23.10;31.00;;;;;;482802;247;1166;-73
2021/11/13 05:11:27;;;;;;;;;;;23.60;30.90;;;;;;482628;247;1218;-71
2021/11/13 05:13:28;;;;;;;;;;;23.20;31.10;;;;;;482736;246;2118;-71
2021/11/13 05:15:29;;;;;;;;;;;23.80;30.50;;;;;;482688;246;1259;-72
2021/11/13 05:17:30;;;;;;;;;;;23.20;31.00;;;;;;482755;247;1116;-71
2021/11/13 05:19:32;;;;;;;;;;;23.10;31.20;;;;;;482785;247;1038;-71
2021/11/13 05:21:33;;;;;;;;;;;23.20;31.30;;;;;;482750;247;1300;-71
2021/11/13 05:23:35;;;;;;;;;;;23.10;31.00;;;;;;482680;247;1176;-71
2021/11/13 05:25:36;;;;;;;;;;;23.80;30.70;;;;;;482631;247;1265;-71
2021/11/13 05:27:37;;;;;;;;;;;23.20;30.80;;;;;;482646;247;1143;-71
2021/11/13 05:29:38;;;;;;;;;;;23.50;30.60;;;;;;482742;247;1139;-71
2021/11/13 05:31:40;;;;;;;;;;;23.10;31.10;;;;;;482736;247;1066;-71
2021/11/13 05:33:41;;;;;;;;;;;23.50;30.60;;;;;;482783;246;2172;-71
2021/11/13 05:35:42;;;;;;;;;;;23.40;31.00;;;;;;482785;246;1069;-71
2021/11/13 05:37:44;;;;;;;;;;;23.50;30.50;;;;;;482653;246;1161;-71
2021/11/13 05:39:45;;;;;;;;;;;23.30;30.90;;;;;;482718;247;1158;-71
2021/11/13 05:41:47;;;;;;;;;;;23.10;31.10;;;;;;482666;246;1136;-71
2021/11/13 05:43:48;;;;;;;;;;;23.40;30.80;;;;;;482829;246;951;-71
2021/11/13 05:45:49;;;;;;;;;;;23.00;31.20;;;;;;482705;247;1066;-71
2021/11/13 05:47:51;;;;;;;;;;;23.60;30.40;;;;;;482694;247;1160;-71
2021/11/13 05:49:52;;;;;;;;;;;23.10;30.90;;;;;;482720;247;1159;-71
2021/11/13 05:51:53;;;;;;;;;;;23.20;30.70;;;;;;482530;247;1150;-71
2021/11/13 05:53:54;;;;;;;;;;;23.50;30.70;;;;;;482733;246;1109;-71
2021/11/13 05:55:56;;;;;;;;;;;23.20;30.50;;;;;;482642;247;1218;-71
2021/11/13 05:57:57;;;;;;;;;;;23.60;30.50;;;;;;482725;246;1111;-71
2021/11/13 05:59:58;;;;;;;;;;;23.40;30.50;;;;;;482778;247;988;-71
2021/11/13 06:02:00;;;;;;;;;;;23.00;30.80;;;;;;482628;247;1164;-71
2021/11/13 06:04:01;;;;;;;;;;;23.20;31.10;;;;;;482687;246;1133;-71
2021/11/13 06:06:03;;;;;;;;;;;23.20;30.60;;;;;;482656;246;1447;-71
2021/11/13 06:08:04;;;;;;;;;;;23.40;30.80;;;;;;482738;246;1145;-71
2021/11/13 06:10:05;;;;;;;;;;;23.20;30.80;;;;;;482829;247;1163;-71
2021/11/13 06:12:07;;;;;;;;;;;23.40;30.70;;;;;;482804;246;2184;-71
2021/11/13 06:14:08;;;;;;;;;;;23.10;30.90;;;;;;482751;246;962;-71
2021/11/13 06:16:09;;;;;;;;;;;23.40;30.40;;;;;;482691;247;1214;-71
2021/11/13 06:18:11;;;;;;;;;;;23.20;30.80;;;;;;482782;246;1226;-71
2021/11/13 06:20:12;;;;;;;;;;;23.10;30.70;;;;;;482809;246;954;-71
2021/11/13 06:22:13;;;;;;;;;;;23.40;30.70;;;;;;482700;246;1255;-71
2021/11/13 06:24:14;;;;;;;;;;;23.20;30.60;;;;;;482784;246;1082;-71
2021/11/13 06:26:17;;;;;;;;;;;23.60;30.30;;;;;;482708;246;1195;-71
2021/11/13 06:28:17;;;;;;;;;;;23.10;30.70;;;;;;482671;247;1441;-71
2021/11/13 06:30:19;;;;;;;;;;;23.40;30.30;;;;;;482772;246;1040;-71
2021/11/13 06:32:20;;;;;;;;;;;23.00;30.80;;;;;;482727;246;2133;-71
2021/11/13 06:34:21;;;;;;;;;;;23.30;30.60;;;;;;482788;247;942;-71
2021/11/13 06:36:22;;;;;;;;;;;23.20;30.60;;;;;;482679;246;1136;-71
2021/11/13 06:38:24;;;;;;;;;;;23.30;30.60;;;;;;482784;246;1109;-71
2021/11/13 06:40:25;;;;;;;;;;;23.10;30.90;;;;;;482746;247;1143;-71
2021/11/13 06:42:26;;;;;;;;;;;23.20;30.60;;;;;;482752;247;947;-71
2021/11/13 06:44:28;;;;;;;;;;;23.20;30.90;;;;;;482763;246;931;-71
2021/11/13 06:46:29;;;;;;;;;;;23.00;30.90;;;;;;482726;246;1206;-71
2021/11/13 06:48:30;;;;;;;;;;;23.50;30.40;;;;;;482726;247;965;-71
2021/11/13 06:50:32;;;;;;;;;;;23.00;30.80;;;;;;482714;246;1206;-71
2021/11/13 06:52:33;;;;;;;;;;;23.30;30.60;;;;;;482640;246;2183;-71
2021/11/13 06:54:34;;;;;;;;;;;23.20;30.90;;;;;;482769;247;1116;-71
2021/11/13 06:56:36;;;;;;;;;;;23.00;30.70;;;;;;482632;246;1173;-71
2021/11/13 06:58:37;;;;;;;;;;;23.30;30.60;;;;;;482801;246;1060;-71
2021/11/13 07:00:38;;;;;;;;;;;22.90;31.00;;;;;;482721;247;1228;-71
2021/11/13 07:02:40;;;;;;;;;;;23.40;30.60;;;;;;482626;247;1135;-71
2021/11/13 07:04:41;;;;;;;;;;;23.00;31.00;;;;;;482748;246;1069;-71
2021/11/13 07:06:42;;;;;;;;;;;22.90;31.00;;;;;;482642;247;1139;-71
2021/11/13 07:08:44;;;;;;;;;;;23.20;31.10;;;;;;482804;247;1088;-71
2021/11/13 07:10:45;;;;;;;;;;;22.90;31.00;;;;;;482715;246;1300;-71
2021/11/13 07:12:47;;;;;;;;;;;23.20;30.80;;;;;;482708;246;2188;-71
2021/11/13 07:14:48;;;;;;;;;;;23.00;31.00;;;;;;482770;247;1062;-71
2021/11/13 07:16:49;;;;;;;;;;;23.20;30.80;;;;;;482664;246;1293;-71
2021/11/13 07:18:50;;;;;;;;;;;23.20;30.90;;;;;;482728;247;1090;-71
2021/11/13 07:20:52;;;;;;;;;;;23.40;30.60;;;;;;482665;246;1160;-71
2021/11/13 07:22:54;;;;;;;;;;;23.10;30.80;;;;;;482707;247;1155;-71
2021/11/13 07:24:55;;;;;;;;;;;23.50;30.30;;;;;;482753;246;1094;-71
2021/11/13 07:26:56;;;;;;;;;;;23.60;30.50;;;;;;482764;246;1184;-71
2021/11/13 07:29:01;;;;;;;;;;;23.40;30.20;;;;;;482807;246;1009;-71
2021/11/13 07:31:02;;;;;;;;;;;23.90;30.30;;;;;;482770;247;1309;-71
2021/11/13 07:33:03;;;;;;;;;;;23.40;30.30;;;;;;482760;246;2141;-71
2021/11/13 07:35:05;;;;;;;;;;;23.90;30.20;;;;;;482823;246;1126;-71
2021/11/13 07:37:06;;;;;;;;;;;23.20;30.70;;;;;;482660;246;1107;-71
2021/11/13 07:39:08;;;;;;;;;;;23.70;30.20;;;;;;482732;246;1138;-71
2021/11/13 07:41:09;;;;;;;;;;;23.40;30.70;;;;;;482684;246;1332;-71
2021/11/13 07:43:11;;;;;;;;;;;23.70;30.20;;;;;;482701;247;1116;-71
2021/11/13 07:45:12;;;;;;;;;;;23.50;30.70;;;;;;482695;247;973;-71
2021/11/13 07:47:13;;;;;;;;;;;23.40;30.50;;;;;;482723;246;1042;-71
2021/11/13 07:49:14;;;;;;;;;;;24.00;30.10;;;;;;482794;247;1088;-72
2021/11/13 07:51:16;;;;;;;;;;;23.30;30.60;;;;;;482715;246;1364;-71
2021/11/13 07:53:17;;;;;;;;;;;23.80;30.30;;;;;;482815;246;2180;-71
2021/11/13 07:55:18;;;;;;;;;;;23.30;30.80;;;;;;482741;247;1192;-71
2021/11/13 07:57:20;;;;;;;;;;;23.70;30.40;;;;;;482732;247;1161;-71
2021/11/13 07:59:21;;;;;;;;;;;23.50;30.70;;;;;;482693;247;928;-71
2021/11/13 08:01:22;;;;;;;;;;;23.60;30.40;;;;;;482661;246;1087;-71
2021/11/13 08:03:23;;;;;;;;;;;23.80;30.40;;;;;;482715;246;953;-71
2021/11/13 08:05:25;;;;;;;;;;;23.50;30.50;;;;;;482714;246;1220;-71
2021/11/13 08:07:27;;;;;;;;;;;23.10;31.10;;;;;;482682;247;1139;-71
2021/11/13 08:09:28;;;;;;;;;;;22.90;31.60;;;;;;482784;247;1149;-71
2021/11/13 08:11:29;;;;;;;;;;;23.20;31.10;;;;;;482770;246;1187;-71
2021/11/13 08:13:31;;;;;;;;;;;23.40;31.20;;;;;;482688;247;2114;-71
2021/11/13 08:15:32;;;;;;;;;;;23.20;31.10;;;;;;482657;246;942;-71
2021/11/13 08:17:33;;;;;;;;;;;23.80;30.70;;;;;;482632;247;1276;-71
2021/11/13 08:19:35;;;;;;;;;;;23.30;30.90;;;;;;482799;246;955;-71
2021/11/13 08:21:36;;;;;;;;;;;23.90;30.60;;;;;;482688;246;1140;-71
2021/11/13 08:23:38;;;;;;;;;;;23.50;30.90;;;;;;482800;247;1198;-71
2021/11/13 08:25:39;;;;;;;;;;;23.80;30.40;;;;;;482733;247;1165;-71
2021/11/13 08:27:41;;;;;;;;;;;23.60;30.90;;;;;;482688;247;1105;-71
2021/11/13 08:29:42;;;;;;;;;;;23.60;30.70;;;;;;482800;246;980;-71
2021/11/13 08:31:43;;;;;;;;;;;23.80;30.90;;;;;;482688;247;1197;-71
2021/11/13 08:33:44;;;;;;;;;;;23.40;30.90;;;;;;482763;246;2122;-71
2021/11/13 08:35:46;;;;;;;;;;;24.00;30.60;;;;;;482745;246;962;-71
2021/11/13 08:37:47;;;;;;;;;;;23.40;31.10;;;;;;482752;246;1150;-71
2021/11/13 08:39:48;;;;;;;;;;;23.60;30.80;;;;;;482803;246;962;-71
2021/11/13 08:41:50;;;;;;;;;;;23.30;31.60;;;;;;482801;247;1204;-71
2021/11/13 08:43:51;;;;;;;;;;;23.40;31.10;;;;;;482769;247;951;-71
2021/11/13 08:45:52;;;;;;;;;;;23.60;31.30;;;;;;482811;246;1192;-71
2021/11/13 08:47:54;;;;;;;;;;;23.40;31.20;;;;;;482729;247;1107;-71
2021/11/13 08:49:56;;;;;;;;;;;23.60;31.40;;;;;;482816;246;980;-71
2021/11/13 08:51:56;;;;;;;;;;;23.20;31.50;;;;;;482785;246;1443;-71
2021/11/13 08:53:58;;;;;;;;;;;23.80;31.10;;;;;;482800;247;2207;-71
2021/11/13 08:55:59;;;;;;;;;;;23.10;31.60;;;;;;482676;246;1133;-71
2021/11/13 08:58:01;;;;;;;;;;;23.80;31.00;;;;;;482713;246;1029;-71
2021/11/13 09:00:02;;;;;;;;;;;23.30;31.40;;;;;;482724;247;1004;-71
2021/11/13 09:02:03;;;;;;;;;;;23.70;31.00;;;;;;482699;246;1148;-71
2021/11/13 09:04:04;;;;;;;;;;;23.30;31.50;;;;;;482738;246;1106;-71
2021/11/13 09:06:06;;;;;;;;;;;23.50;31.10;;;;;;482717;246;1196;-71
2021/11/13 09:08:08;;;;;;;;;;;23.60;31.40;;;;;;482749;246;1131;-71
2021/11/13 09:10:09;;;;;;;;;;;23.20;31.30;;;;;;482762;247;1036;-71
2021/11/13 09:12:10;;;;;;;;;;;23.10;31.80;;;;;;482748;247;1235;-71
2021/11/13 09:14:12;;;;;;;;;;;23.00;32.30;;;;;;482699;246;2176;-71
2021/11/13 09:16:13;;;;;;;;;;;23.20;31.40;;;;;;482663;246;1253;-71
2021/11/13 09:18:14;;;;;;;;;;;23.50;31.50;;;;;;482687;247;966;-71
2021/11/13 09:20:16;;;;;;;;;;;23.10;31.60;;;;;;482772;246;978;-71
2021/11/13 09:22:17;;;;;;;;;;;23.60;31.20;;;;;;482711;246;1300;-71
2021/11/13 09:24:18;;;;;;;;;;;23.30;31.60;;;;;;482728;246;991;-71
2021/11/13 09:26:20;;;;;;;;;;;23.30;31.30;;;;;;482653;246;1124;-71
2021/11/13 09:28:21;;;;;;;;;;;23.00;31.90;;;;;;482744;247;2022;-71
2021/11/13 09:30:22;;;;;;;;;;;23.50;31.20;;;;;;482808;246;1010;-71
2021/11/13 09:32:24;;;;;;;;;;;23.20;31.70;;;;;;482743;246;1144;-71
2021/11/13 09:34:25;;;;;;;;;;;23.20;31.40;;;;;;482775;246;2180;-71
2021/11/13 09:36:26;;;;;;;;;;;23.60;31.30;;;;;;482696;246;1198;-71
2021/11/13 09:38:28;;;;;;;;;;;23.30;31.30;;;;;;482771;247;1248;-71
2021/11/13 09:40:29;;;;;;;;;;;23.50;31.40;;;;;;482776;246;1120;-71
2021/11/13 09:42:31;;;;;;;;;;;23.10;31.60;;;;;;482846;246;1179;-71
2021/11/13 09:44:32;;;;;;;;;;;23.50;31.10;;;;;;482778;246;1016;-71
2021/11/13 09:46:34;;;;;;;;;;;23.10;31.70;;;;;;482706;246;1130;-71
2021/11/13 09:48:35;;;;;;;;;;;23.40;31.10;;;;;;482738;246;1234;-71
2021/11/13 09:50:36;;;;;;;;;;;23.30;31.60;;;;;;482680;247;1074;-71
2021/11/13 09:52:38;;;;;;;;;;;23.40;31.20;;;;;;482668;246;1189;-71
2021/11/13 09:54:39;;;;;;;;;;;23.40;31.40;;;;;;482807;247;2196;-71
2021/11/13 09:56:40;;;;;;;;;;;22.90;31.80;;;;;;482701;246;1108;-71
2021/11/13 09:58:42;;;;;;;;;;;23.40;31.20;;;;;;482823;246;1175;-71
2021/11/13 10:00:43;;;;;;;;;;;23.00;31.70;;;;;;482748;246;960;-71
2021/11/13 10:02:45;;;;;;;;;;;23.20;31.40;;;;;;482712;246;951;-71
2021/11/13 10:04:46;;;;;;;;;;;23.40;31.60;;;;;;482804;246;954;-71
2021/11/13 10:06:47;;;;;;;;;;;23.00;31.40;;;;;;482770;247;947;-71
2021/11/13 10:08:49;;;;;;;;;;;23.40;31.60;;;;;;482759;246;1051;-71
2021/11/13 10:10:50;;;;;;;;;;;23.10;31.50;;;;;;482701;246;1045;-71
2021/11/13 10:12:53;;;;;;;;;;;23.30;31.40;;;;;;482714;247;1193;-71
2021/11/13 10:14:53;;;;;;;;;;;22.80;32.10;;;;;;482639;247;2114;-71
2021/11/13 10:16:54;;;;;;;;;;;22.50;32.50;;;;;;482690;246;1117;-71
2021/11/13 10:18:56;;;;;;;;;;;23.00;32.10;;;;;;482759;247;999;-71
2021/11/13 10:20:57;;;;;;;;;;;23.00;32.20;;;;;;482730;246;1160;-71
2021/11/13 10:22:59;;;;;;;;;;;23.30;31.30;;;;;;482710;247;1135;-71
2021/11/13 10:25:00;;;;;;;;;;;23.00;32.00;;;;;;482786;246;921;-71
2021/11/13 10:27:02;;;;;;;;;;;23.20;31.70;;;;;;482753;246;1306;-71
2021/11/13 10:29:03;;;;;;;;;;;23.40;31.70;;;;;;482679;247;1236;-71
2021/11/13 10:31:04;;;;;;;;;;;23.00;31.60;;;;;;482688;247;1118;-71
2021/11/13 10:33:05;;;;;;;;;;;23.40;31.40;;;;;;482747;246;1191;-71
2021/11/13 10:35:07;;;;;;;;;;;22.80;32.10;;;;;;482789;247;2125;-71
2021/11/13 10:37:08;;;;;;;;;;;23.30;31.40;;;;;;482716;246;1132;-71
2021/11/13 10:39:09;;;;;;;;;;;22.90;32.10;;;;;;482779;247;955;-71
2021/11/13 10:41:10;;;;;;;;;;;22.50;32.50;;;;;;482708;247;1259;-71
2021/11/13 10:43:12;;;;;;;;;;;22.20;33.10;;;;;;482732;246;1145;-71
2021/11/13 10:45:13;;;;;;;;;;;21.90;33.50;;;;;;482703;247;1027;-71
2021/11/13 10:47:14;;;;;;;;;;;21.90;33.70;;;;;;482714;246;1131;-71
2021/11/13 10:49:16;;;;;;;;;;;22.00;33.60;;;;;;482831;246;952;-71
2021/11/13 10:51:17;;;;;;;;;;;22.00;33.60;;;;;;482765;246;1191;-71
2021/11/13 10:53:18;;;;;;;;;;;22.10;33.70;;;;;;482790;247;1090;-71
2021/11/13 10:55:20;;;;;;;;;;;22.60;33.10;;;;;;482790;246;2192;-71
2021/11/13 10:57:21;;;;;;;;;;;22.70;32.60;;;;;;482646;244;1129;-71
2021/11/13 10:59:22;;;;;;;;;;;22.90;32.40;;;;;;482779;246;1108;-71
2021/11/13 11:01:24;;;;;;;;;;;23.00;32.40;;;;;;482655;246;1222;-71
2021/11/13 11:03:25;;;;;;;;;;;22.90;32.30;;;;;;482743;247;1165;-71
2021/11/13 11:05:26;;;;;;;;;;;23.00;32.20;;;;;;482758;246;1071;-71
2021/11/13 11:07:28;;;;;;;;;;;23.10;32.10;;;;;;482779;247;1100;-71
2021/11/13 11:09:29;;;;;;;;;;;23.10;32.10;;;;;;482687;246;1124;-71
2021/11/13 11:11:30;;;;;;;;;;;23.30;32.00;;;;;;482569;247;1226;-71
2021/11/13 11:13:32;;;;;;;;;;;23.10;32.20;;;;;;482676;247;1186;-71
2021/11/13 11:15:33;;;;;;;;;;;23.30;31.90;;;;;;482694;246;2129;-71
2021/11/13 11:17:34;;;;;;;;;;;23.10;32.20;;;;;;482731;247;1101;-71
2021/11/13 11:19:36;;;;;;;;;;;23.20;32.10;;;;;;482744;246;1134;-71
2021/11/13 11:21:37;;;;;;;;;;;23.30;32.10;;;;;;482695;247;1159;-71
2021/11/13 11:23:38;;;;;;;;;;;23.30;32.00;;;;;;482742;246;992;-71
2021/11/13 11:25:40;;;;;;;;;;;23.10;32.30;;;;;;482715;246;1209;-71
2021/11/13 11:27:41;;;;;;;;;;;22.90;32.50;;;;;;482662;244;1138;-71
2021/11/13 11:29:42;;;;;;;;;;;23.20;32.40;;;;;;482742;246;958;-71
2021/11/13 11:31:44;;;;;;;;;;;23.10;32.30;;;;;;482655;247;1147;-71
2021/11/13 11:33:45;;;;;;;;;;;23.20;32.40;;;;;;482743;247;928;-71
2021/11/13 11:35:46;;;;;;;;;;;23.20;32.30;;;;;;482768;246;2187;-71
2021/11/13 11:37:48;;;;;;;;;;;23.20;32.30;;;;;;482716;247;1137;-71
2021/11/13 11:39:49;;;;;;;;;;;23.40;31.90;;;;;;482713;246;1072;-71
2021/11/13 11:41:50;;;;;;;;;;;23.30;32.10;;;;;;482586;247;1206;-71
2021/11/13 11:43:52;;;;;;;;;;;23.30;32.10;;;;;;482817;246;1204;-71
2021/11/13 11:45:53;;;;;;;;;;;23.30;32.10;;;;;;482644;247;1188;-71
2021/11/13 11:47:54;;;;;;;;;;;23.40;32.10;;;;;;482681;247;966;-71
2021/11/13 11:49:56;;;;;;;;;;;23.50;31.70;;;;;;482787;246;1022;-71
2021/11/13 11:51:57;;;;;;;;;;;23.40;32.10;;;;;;482663;247;1222;-71
2021/11/13 11:54:00;;;;;;;;;;;23.30;32.00;;;;;;482817;246;1081;-71
2021/11/13 11:56:01;;;;;;;;;;;23.30;32.10;;;;;;482702;246;2136;-71
2021/11/13 11:58:02;;;;;;;;;;;23.30;32.20;;;;;;482723;246;1035;-71